Data for 09/16/2016

Time Sea-Level Adjusted Pressure Absolute Pressure Temperature Relative Humidity Dew Point   
(mb) (inHg) (mb) (inHg) (C) (F) (%) (C) (F)
00:05 1023 30.21 852 25.16 8.5 47.3 58 0.8 33.5
00:10 1023 30.21 852 25.16 8.6 47.4 59 1 33.9
00:15 1023 30.21 852 25.16 8.6 47.4 58 0.8 33.5
00:20 1023 30.21 852 25.16 8.5 47.3 59 0.9 33.7
00:25 1023 30.21 852 25.16 8.5 47.3 58 0.7 33.2
00:30 1023 30.21 852 25.16 8.3 47 59 0.9 33.7
00:35 1023 30.21 852 25.16 8.1 46.5 61 1 33.7
00:40 1023 30.21 852 25.16 7.9 46.3 60 0.8 33.4
00:45 1023 30.21 852 25.16 7.8 46.1 62 0.9 33.7
00:50 1023 30.21 852 25.16 7.8 46 61 0.8 33.5
00:55 1023 30.21 852 25.16 8 46.3 59 0.6 33
01:00 1023 30.21 852 25.16 8.1 46.6 59 0.6 33
01:05 1023 30.21 852 25.16 8.3 46.9 58 0.5 32.9
01:10 1023 30.21 852 25.16 8.4 47.1 58 0.7 33.2
01:15 1023 30.21 852 25.16 8.3 47 58 0.5 32.9
01:20 1023 30.21 852 25.16 8.5 47.3 57 0.4 32.8
01:25 1023 30.21 852 25.16 8.6 47.5 56 0.3 32.6
01:30 1023 30.21 852 25.16 8.7 47.7 56 0.5 32.9
01:35 1023 30.21 852 25.16 8.7 47.6 56 0.5 32.9
01:40 1023 30.21 852 25.16 8.6 47.4 56 0.4 32.8
01:45 1023 30.21 852 25.16 8.7 47.6 55 0.3 32.5
01:50 1023 30.21 852 25.16 9 48.1 55 0.4 32.7
01:55 1023 30.21 852 25.16 8.8 47.9 57 0.8 33.5
02:00 1023 30.21 852 25.16 8.7 47.7 55 0.3 32.5
02:05 1023 30.21 852 25.16 9.1 48.3 54 0.4 32.7
02:10 1023 30.21 852 25.16 9.1 48.5 55 0.5 32.9
02:15 1023 30.21 852 25.16 9.2 48.6 55 0.6 33
02:20 1023 30.21 852 25.16 8.9 48.1 56 0.7 33.2
02:25 1023 30.21 852 25.16 8.8 47.8 54 0 32.1
02:30 1023 30.21 852 25.16 8.8 47.8 55 0.2 32.3
02:35 1023 30.21 852 25.16 8.6 47.5 55 0.2 32.4
02:40 1023 30.21 852 25.16 8.4 47.2 58 0.6 33
02:45 1023 30.21 852 25.16 7.9 46.1 61 0.9 33.6
02:50 1023 30.21 852 25.16 7.2 45 63 0.7 33.3
02:55 1023 30.21 852 25.16 6.9 44.5 64 0.7 33.2
03:00 1023 30.21 852 25.16 6.9 44.4 64 0.5 32.9
03:05 1023 30.21 852 25.16 7.2 45 61 0.2 32.4
03:10 1023 30.21 852 25.16 7.4 45.3 62 0.5 32.9
03:15 1023 30.21 852 25.16 7.4 45.3 61 0.3 32.6
03:20 1023 30.21 852 25.16 7.4 45.4 62 0.6 33.1
03:25 1023 30.21 852 25.16 7.2 44.9 62 0.4 32.8
03:30 1023 30.21 852 25.16 7.2 45 62 0.4 32.8
03:35 1023 30.21 852 25.16 6.9 44.4 65 0.7 33.3
03:40 1023 30.21 852 25.16 6.7 44 64 0.4 32.7
03:45 1023 30.21 852 25.16 6.9 44.4 63 0.4 32.6
03:50 1023 30.21 852 25.16 7.4 45.4 60 0.2 32.4
03:55 1023 30.21 852 25.16 7.6 45.6 60 0.3 32.6
04:00 1023 30.21 852 25.16 7.4 45.2 62 0.6 33.1
04:05 1023 30.21 852 25.16 6.9 44.4 64 0.6 33.1
04:10 1023 30.21 852 25.16 6.6 43.8 64 0.3 32.6
04:15 1023 30.21 852 25.16 6.7 44.1 64 0.3 32.6
04:20 1023 30.21 852 25.16 6.8 44.3 63 0.4 32.7
04:25 1023 30.21 852 25.16 7 44.6 62 0.1 32.2
04:30 1023 30.21 852 25.16 7 44.7 63 0.4 32.7
04:35 1023 30.21 852 25.16 6.9 44.4 62 0.2 32.3
04:40 1023 30.21 852 25.16 6.8 44.3 63 0.3 32.6
04:45 1023 30.21 852 25.16 6.7 44.1 64 0.3 32.6
04:50 1023 30.21 852 25.16 6.6 44 63 0.1 32.2
04:55 1023 30.21 852 25.16 6.9 44.4 62 0.2 32.3
05:00 1023 30.21 852 25.16 7.2 44.9 61 0.3 32.5
05:05 1023 30.21 852 25.16 7.3 45.1 61 0.3 32.5
05:10 1023 30.21 852 25.16 7.4 45.3 61 0.3 32.6
05:15 1023 30.21 852 25.16 7.5 45.6 60 0.3 32.5
05:20 1023 30.21 852 25.16 7.6 45.7 60 0.3 32.5
05:25 1023 30.21 852 25.16 7.9 46.1 59 0.4 32.7
05:30 1023 30.21 852 25.16 8 46.5 61 1 33.7
05:35 1023 30.21 852 25.16 7.4 45.2 63 0.9 33.6
05:40 1023 30.21 852 25.16 7 44.7 65 1 33.7
05:45 1023 30.21 852 25.16 6.2 43.2 70 1.2 34.1
05:50 1023 30.21 852 25.16 6 42.9 68 0.5 32.9
05:55 1023 30.21 852 25.16 6.7 44.1 63 0.3 32.5
06:00 1023 30.21 852 25.16 7.2 44.9 62 0.4 32.6
06:05 1023 30.21 852 25.16 7.3 45.2 62 0.5 32.9
06:10 1023 30.21 852 25.16 7.1 44.9 62 0.3 32.5
06:15 1023 30.21 852 25.16 7.1 44.7 63 0.5 32.9
06:20 1023 30.21 852 25.16 6.9 44.4 63 0.4 32.8
06:25 1023 30.21 852 25.16 7 44.7 63 0.6 33
06:30 1023 30.21 852 25.16 7.2 45 63 0.7 33.2
06:35 1023 30.21 852 25.16 7.3 45.1 63 0.7 33.3
06:40 1023 30.21 852 25.16 7.3 45.1 63 0.7 33.3
06:45 1023 30.21 852 25.16 7.4 45.3 63 0.7 33.3
06:50 1023 30.21 852 25.16 7.6 45.6 62 0.8 33.5
06:55 1023 30.21 852 25.16 7.5 45.5 63 0.9 33.6
07:00 1023 30.21 852 25.16 7.4 45.3 62 0.7 33.3
07:05 1023 30.21 852 25.16 7.8 46 61 0.8 33.5
07:10 1023 30.21 852 25.16 8 46.4 62 1.1 34
07:15 1023 30.21 852 25.16 8.2 46.8 61 1.1 33.9
07:20 1023 30.21 852 25.16 8.5 47.3 59 0.9 33.6
07:25 1023 30.21 852 25.16 9.1 48.4 56 0.9 33.7
07:30 1023 30.21 852 25.16 9.8 49.7 54 1.1 33.9
07:35 1023 30.21 852 25.16 10.2 50.3 55 1.6 34.8
07:40 1023 30.21 852 25.16 10.2 50.4 53 1.1 34
07:45 1023 30.21 852 25.16 10.4 50.8 54 1.5 34.8
07:50 1023 30.21 852 25.16 10.9 51.6 52 1.5 34.7
07:55 1023 30.21 852 25.16 11.2 52.2 51 1.5 34.7
08:00 1023 30.21 852 25.16 11.6 52.8 52 2 35.6
08:05 1023 30.21 852 25.16 11.4 52.5 53 2.1 35.8
08:10 1023 30.21 852 25.16 11.7 53 52 2.2 36
08:15 1023 30.21 852 25.16 12.3 54.2 50 2.3 36.2
08:20 1023 30.21 852 25.16 12.5 54.4 52 2.8 37.1
08:25 1023 30.21 852 25.16 12.6 54.6 51 2.7 36.9
08:30 1023 30.21 852 25.16 13.2 55.8 48 2.7 36.8
08:35 1023 30.21 853 25.19 13 55.3 48 2.1 35.9
08:40 1023 30.21 852 25.16 13.1 55.6 46 2 35.5
08:45 1023 30.21 852 25.16 13.9 57.1 41 1.1 34
08:50 1023 30.21 852 25.16 14.6 58.2 39 0.8 33.5
08:55 1023 30.21 852 25.16 14.6 58.3 40 1.2 34.2
09:00 1023 30.21 853 25.19 14.4 58 42 1.7 35.1
09:05 1023 30.21 852 25.16 14.6 58.4 39 0.8 33.4
09:10 1023 30.21 852 25.16 14.9 58.8 40 1.6 34.8
09:15 1023 30.21 852 25.16 15 59 42 2.2 36
09:20 1023 30.21 853 25.19 15.3 59.5 39 1.4 34.5
09:25 1023 30.21 853 25.19 15.2 59.4 41 2 35.6
09:30 1023 30.21 853 25.19 15.3 59.6 39 1.6 35
09:35 1023 30.21 853 25.19 15.8 60.5 37 1.1 34
09:40 1023 30.21 853 25.19 16.4 61.6 36 1.5 34.7
09:45 1023 30.21 852 25.16 16.3 61.3 38 2 35.5
09:50 1023 30.21 852 25.16 16 60.7 38 1.9 35.4
09:55 1023 30.21 852 25.16 16.9 62.5 34 1.1 33.9
10:00 1023 30.21 852 25.16 17.2 62.9 35 1.8 35.2
10:05 1023 30.21 852 25.16 17.3 63.2 34 1.4 34.6
10:10 1023 30.21 852 25.16 17.4 63.4 35 1.9 35.5
10:15 1023 30.21 852 25.16 17.4 63.2 34 1.4 34.5
10:20 1023 30.21 852 25.16 17.5 63.5 35 2 35.5
10:25 1023 30.21 852 25.16 17.1 62.7 35 1.7 35
10:30 1023 30.21 852 25.16 17.1 62.8 35 1.8 35.3
10:35 1023 30.21 852 25.16 17.6 63.6 35 2 35.6
10:40 1023 30.21 852 25.16 18.2 64.7 32 1.4 34.5
10:45 1023 30.21 852 25.16 18.4 65 33 1.8 35.2
10:50 1023 30.21 852 25.16 18.4 65 32 1.7 35
10:55 1023 30.21 852 25.16 17.9 64.3 34 1.8 35.3
11:00 1023 30.21 852 25.16 17.3 63.2 33 1.1 33.9
11:05 1023 30.21 852 25.16 18.3 65 33 1.7 35.1
11:10 1023 30.21 852 25.16 18.6 65.5 32 1.6 35
11:15 1023 30.21 852 25.16 18.9 66.1 30 1.2 34.2
11:20 1023 30.21 852 25.16 19.6 67.2 30 1.5 34.7
11:25 1023 30.21 852 25.16 19.5 67.1 29 1.2 34.2
11:30 1023 30.21 852 25.16 19.5 67.2 29 1.2 34.1
11:35 1023 30.21 852 25.16 18.4 65.1 31 1.2 34.2
11:40 1022 30.18 852 25.16 19.1 66.3 29 0.8 33.5
11:45 1022 30.18 852 25.16 19.7 67.5 30 1.8 35.2
11:50 1022 30.18 852 25.16 20 68.1 29 1.6 35
11:55 1022 30.18 852 25.16 19.6 67.3 28 0.6 33.1
12:00 1022 30.18 852 25.16 20.1 68.2 29 1.9 35.4
12:05 1022 30.18 852 25.16 20.3 68.5 27 0.9 33.6
12:10 1022 30.18 851 25.13 20.9 69.6 27 1.2 34.1
12:15 1022 30.18 851 25.13 20.8 69.5 26 0.9 33.6
12:20 1022 30.18 851 25.13 20.7 69.3 26 0.9 33.6
12:25 1022 30.18 851 25.13 20.8 69.5 26 0.7 33.3
12:30 1022 30.18 851 25.13 21 69.8 25 0.4 32.7
12:35 1022 30.18 851 25.13 20.4 68.6 26 0.4 32.7
12:40 1022 30.18 851 25.13 20.4 68.7 27 0.7 33.3
12:45 1022 30.18 851 25.13 20.4 68.8 27 1 33.8
12:50 1022 30.18 851 25.13 20.5 68.9 26 0.5 33
12:55 1022 30.18 851 25.13 20.2 68.4 27 0.9 33.7
13:00 1022 30.18 851 25.13 20.4 68.7 25 -0.3 31.5
13:05 1022 30.18 851 25.13 21.1 70.1 25 0.6 33
13:10 1022 30.18 851 25.13 21.3 70.3 24 0.3 32.5
13:15 1022 30.18 851 25.13 21.2 70.1 25 0.5 32.9
13:20 1022 30.18 851 25.13 21.2 70.2 24 -0.1 31.9
13:25 1022 30.18 851 25.13 21.4 70.5 23 -0.2 31.6
13:30 1021 30.15 851 25.13 21.4 70.5 22 -0.8 30.5
13:35 1021 30.15 851 25.13 20.6 69 22 -1.5 29.4
13:40 1021 30.15 850 25.1 20.4 68.8 23 -1.2 29.8
13:45 1021 30.15 850 25.1 20.8 69.4 23 -0.9 30.3
13:50 1021 30.15 850 25.1 20.2 68.3 24 -0.8 30.5
13:55 1021 30.15 850 25.1 21.3 70.3 23 -0.3 31.5
14:00 1021 30.15 850 25.1 21.6 70.8 24 0.5 32.9
14:05 1021 30.15 850 25.1 21.2 70.2 24 -0 32
14:10 1021 30.15 850 25.1 21.7 71.1 23 0 32.1
14:15 1021 30.15 850 25.1 21.8 71.3 23 -0 32
14:20 1021 30.15 850 25.1 21.3 70.3 24 0.1 32.1
14:25 1021 30.15 850 25.1 21.4 70.4 23 -0.4 31.2
14:30 1021 30.15 850 25.1 21.6 70.8 24 0.5 32.9
14:35 1021 30.15 850 25.1 21.5 70.6 24 0.5 32.8
14:40 1021 30.15 850 25.1 21.4 70.5 23 -0.5 31.1
14:45 1021 30.15 850 25.1 21.9 71.4 23 -0.1 31.9
14:50 1021 30.15 850 25.1 22.3 72.2 22 -0.2 31.6
14:55 1021 30.15 850 25.1 22.6 72.7 22 0.1 32.1
15:00 1021 30.15 850 25.1 22.5 72.5 21 -0.6 31
15:05 1020 30.12 850 25.1 22.1 71.7 23 0.2 32.4
15:10 1020 30.12 850 25.1 22.2 72 22 -0.4 31.3
15:15 1020 30.12 850 25.1 22.4 72.2 22 -0.5 31.2
15:20 1020 30.12 850 25.1 22.5 72.5 21 -0.4 31.3
15:25 1020 30.12 850 25.1 22.3 72.1 22 -0 32
15:30 1020 30.12 850 25.1 22.3 72.1 22 -0.4 31.2
15:35 1020 30.12 849 25.07 22.5 72.4 22 -0.3 31.4
15:40 1020 30.12 849 25.07 21.6 71 24 0.6 33.1
15:45 1020 30.12 849 25.07 21.8 71.2 23 -0.3 31.5
15:50 1020 30.12 849 25.07 21.9 71.5 22 -0.3 31.5
15:55 1020 30.12 849 25.07 22.2 72 22 -0.2 31.7
16:00 1020 30.12 849 25.07 22.4 72.3 23 0.3 32.5
16:05 1020 30.12 849 25.07 21.8 71.2 23 -0.3 31.5
16:10 1020 30.12 849 25.07 21 69.9 24 -0.1 31.8
16:15 1020 30.12 849 25.07 21.3 70.4 23 -0.3 31.4
16:20 1020 30.12 849 25.07 21.9 71.4 21 -1.2 29.9
16:25 1020 30.12 849 25.07 22.1 71.9 22 -0.4 31.3
16:30 1020 30.12 849 25.07 22.6 72.7 21 -0.7 30.8
16:35 1020 30.12 849 25.07 22.1 71.7 23 0.3 32.5
16:40 1020 30.12 849 25.07 21.4 70.5 22 -0.7 30.7
16:45 1020 30.12 849 25.07 20.9 69.7 23 -0.6 30.9
16:50 1020 30.12 849 25.07 20.7 69.2 24 -0.5 31.1
16:55 1020 30.12 849 25.07 20.5 68.9 24 -0.8 30.6
17:00 1020 30.12 849 25.07 20.9 69.6 23 -0.7 30.7
17:05 1020 30.12 849 25.07 21.5 70.7 22 -0.9 30.4
17:10 1020 30.12 849 25.07 21.8 71.2 21 -1.2 29.9
17:15 1020 30.12 849 25.07 21.8 71.2 22 -1 30.3
17:20 1020 30.12 849 25.07 21.9 71.3 22 -0.8 30.5
17:25 1020 30.12 849 25.07 21.2 70.2 24 -0.2 31.6
17:30 1020 30.12 849 25.07 20.6 69.1 24 -0.4 31.3
17:35 1020 30.12 849 25.07 20.5 68.9 25 -0.2 31.7
17:40 1020 30.12 849 25.07 20.5 68.8 25 -0.2 31.7
17:45 1020 30.12 849 25.07 20.2 68.4 25 -0.1 31.9
17:50 1020 30.12 849 25.07 20.1 68.1 26 0.2 32.4
17:55 1020 30.12 849 25.07 20.1 68.2 25 -0.3 31.4
18:00 1020 30.12 849 25.07 20 67.9 26 0 32
18:05 1020 30.12 849 25.07 19.9 67.8 26 -0.1 31.8
18:10 1020 30.12 849 25.07 19.8 67.7 25 -0.6 30.9
18:15 1020 30.12 849 25.07 19.8 67.6 26 -0.1 31.9
18:20 1020 30.12 849 25.07 19.6 67.3 26 -0.1 31.8
18:25 1020 30.12 849 25.07 19.4 66.9 34 3.2 37.7
18:30 1020 30.12 849 25.07 18.6 65.5 36 3.4 38.1
18:35 1020 30.12 849 25.07 17.8 64.1 39 3.8 38.9
18:40 1020 30.12 849 25.07 17 62.6 43 4.5 40.1
18:45 1020 30.12 849 25.07 16.5 61.7 45 4.6 40.2
18:50 1020 30.12 849 25.07 16.2 61.1 44 4.2 39.5
18:55 1020 30.12 849 25.07 15.4 59.8 45 3.8 38.8
19:00 1020 30.12 849 25.07 15 58.9 46 3.5 38.3
19:05 1020 30.12 849 25.07 14.7 58.4 46 3.3 37.9
19:10 1020 30.12 849 25.07 14.5 58.2 51 4.6 40.3
19:15 1020 30.12 849 25.07 14.4 57.8 47 3.4 38
19:20 1020 30.12 849 25.07 14.1 57.4 48 3.2 37.8
19:25 1020 30.12 849 25.07 13.8 56.9 48 3.2 37.7
19:30 1020 30.12 849 25.07 13.5 56.4 49 3.2 37.8
19:35 1020 30.12 849 25.07 13.2 55.8 51 3.3 37.9
19:40 1020 30.12 849 25.07 12.8 55.1 53 3.4 38.1
19:45 1020 30.12 849 25.07 12.5 54.5 53 3.2 37.8
19:50 1020 30.12 849 25.07 12.4 54.3 52 2.7 36.9
19:55 1020 30.12 849 25.07 12.4 54.3 49 2 35.6
20:00 1020 30.12 849 25.07 12.7 54.9 47 1.7 35
20:05 1020 30.12 849 25.07 12.9 55.2 46 1.7 35
20:10 1020 30.12 849 25.07 12.8 55.1 46 1.6 34.9
20:15 1020 30.12 849 25.07 12.7 54.9 46 1.6 34.9
20:20 1020 30.12 849 25.07 12.7 54.9 46 1.4 34.5
20:25 1020 30.12 849 25.07 12.6 54.6 46 1.3 34.4
20:30 1020 30.12 849 25.07 12.3 54.2 48 1.7 35
20:35 1020 30.12 849 25.07 12 53.5 48 1.4 34.5
20:40 1020 30.12 849 25.07 12.1 53.7 47 1.2 34.2
20:45 1020 30.12 849 25.07 12.2 53.9 47 1.3 34.4
20:50 1020 30.12 849 25.07 12.1 53.7 47 1.2 34.2
20:55 1020 30.12 849 25.07 12.1 53.8 47 1.3 34.3
21:00 1020 30.12 849 25.07 12 53.5 47 1.2 34.2
21:05 1020 30.12 849 25.07 11.9 53.4 47 1.1 34
21:10 1020 30.12 849 25.07 12 53.6 46 0.7 33.3
21:15 1020 30.12 849 25.07 12.1 53.8 46 0.8 33.4
21:20 1020 30.12 849 25.07 12.2 54 46 1.1 33.9
21:25 1020 30.12 849 25.07 11.9 53.4 47 1 33.9
21:30 1020 30.12 849 25.07 11.7 53.1 47 0.7 33.3
21:35 1020 30.12 849 25.07 11.7 53 48 1 33.8
21:40 1020 30.12 849 25.07 11.5 52.8 47 0.7 33.3
21:45 1020 30.12 849 25.07 11.6 52.8 47 0.7 33.2
21:50 1020 30.12 849 25.07 11.6 52.9 47 0.6 33.1
21:55 1020 30.12 849 25.07 11.6 52.8 47 0.7 33.2
22:00 1020 30.12 849 25.07 11.5 52.7 47 0.6 33.1
22:05 1020 30.12 849 25.07 11.6 52.8 45 0.2 32.4
22:10 1020 30.12 849 25.07 11.8 53.3 44 0 32.1
22:15 1020 30.12 849 25.07 12.1 53.7 43 -0.2 31.7
22:20 1020 30.12 849 25.07 12.2 53.9 42 -0.4 31.3
22:25 1020 30.12 849 25.07 12.1 53.8 42 -0.4 31.3
22:30 1020 30.12 849 25.07 11.9 53.4 43 -0.3 31.4
22:35 1020 30.12 849 25.07 11.8 53.3 43 -0.1 31.7
22:40 1020 30.12 849 25.07 11.7 53 44 -0.3 31.5
22:45 1020 30.12 849 25.07 11.5 52.6 45 -0.2 31.7
22:50 1020 30.12 849 25.07 11.2 52.1 47 0.3 32.5
22:55 1020 30.12 849 25.07 11 51.8 47 0.2 32.3
23:00 1020 30.12 849 25.07 11.1 51.9 48 0.4 32.8
23:05 1020 30.12 849 25.07 11 51.8 49 0.8 33.4
23:10 1020 30.12 849 25.07 10.8 51.5 49 0.6 33
23:15 1020 30.12 849 25.07 10.7 51.3 50 0.8 33.4
23:20 1020 30.12 849 25.07 10.9 51.5 47 0.1 32.1
23:25 1020 30.12 849 25.07 10.8 51.5 49 0.5 33
23:30 1020 30.12 849 25.07 10.3 50.6 51 0.5 33
23:35 1020 30.12 849 25.07 10.1 50.2 50 0.2 32.3
23:40 1020 30.12 849 25.07 10 50 50 0.2 32.3
23:45 1020 30.12 849 25.07 9.8 49.7 51 0.2 32.4
23:50 1020 30.12 849 25.07 9.9 49.8 50 0.1 32.1
23:55 1020 30.12 849 25.07 10.1 50.1 50 0 32.1
24:00 1020 30.12 849 25.07 10.2 50.3 48 -0.3 31.5